sensor_id;sensor_type;location;lat;lon;timestamp;temperature;humidity
13982;DHT22;7065;50.880;5.502;2023-07-22T00:00:46;12.20;99.90
13982;DHT22;7065;50.880;5.502;2023-07-22T00:03:12;12.10;99.90
13982;DHT22;7065;50.880;5.502;2023-07-22T00:05:39;12.10;99.90
13982;DHT22;7065;50.880;5.502;2023-07-22T00:08:04;12.10;99.90
13982;DHT22;7065;50.880;5.502;2023-07-22T00:10:30;12.00;99.90
13982;DHT22;7065;50.880;5.502;2023-07-22T00:12:56;12.00;99.90
13982;DHT22;7065;50.880;5.502;2023-07-22T00:15:21;12.00;99.90
13982;DHT22;7065;50.880;5.502;2023-07-22T00:17:49;11.90;99.90
13982;DHT22;7065;50.880;5.502;2023-07-22T00:20:16;11.90;99.90
13982;DHT22;7065;50.880;5.502;2023-07-22T00:22:42;11.90;99.90
13982;DHT22;7065;50.880;5.502;2023-07-22T00:25:10;11.90;99.90
13982;DHT22;7065;50.880;5.502;2023-07-22T00:27:37;11.90;99.90
13982;DHT22;7065;50.880;5.502;2023-07-22T00:30:05;11.90;99.90
13982;DHT22;7065;50.880;5.502;2023-07-22T00:32:31;11.90;99.90
13982;DHT22;7065;50.880;5.502;2023-07-22T00:34:57;11.80;99.90
13982;DHT22;7065;50.880;5.502;2023-07-22T00:37:22;11.80;99.90
13982;DHT22;7065;50.880;5.502;2023-07-22T00:39:48;11.80;99.90
13982;DHT22;7065;50.880;5.502;2023-07-22T00:42:14;11.80;99.90
13982;DHT22;7065;50.880;5.502;2023-07-22T00:44:39;11.80;99.90
13982;DHT22;7065;50.880;5.502;2023-07-22T00:47:05;11.80;99.90
13982;DHT22;7065;50.880;5.502;2023-07-22T00:49:32;11.80;99.90
13982;DHT22;7065;50.880;5.502;2023-07-22T00:52:00;11.80;99.90
13982;DHT22;7065;50.880;5.502;2023-07-22T00:54:27;11.70;99.90
13982;DHT22;7065;50.880;5.502;2023-07-22T00:56:54;11.70;99.90
13982;DHT22;7065;50.880;5.502;2023-07-22T00:59:20;11.70;99.90
13982;DHT22;7065;50.880;5.502;2023-07-22T01:01:46;11.60;99.90
13982;DHT22;7065;50.880;5.502;2023-07-22T01:04:15;11.60;99.90
13982;DHT22;7065;50.880;5.502;2023-07-22T01:06:43;11.60;99.90
13982;DHT22;7065;50.880;5.502;2023-07-22T01:09:09;11.50;99.90
13982;DHT22;7065;50.880;5.502;2023-07-22T01:11:35;11.60;99.90
13982;DHT22;7065;50.880;5.502;2023-07-22T01:14:01;11.60;99.90
13982;DHT22;7065;50.880;5.502;2023-07-22T01:16:27;11.50;99.90
13982;DHT22;7065;50.880;5.502;2023-07-22T01:18:54;11.50;99.90
13982;DHT22;7065;50.880;5.502;2023-07-22T01:21:22;11.50;99.90
13982;DHT22;7065;50.880;5.502;2023-07-22T01:23:48;11.50;99.90
13982;DHT22;7065;50.880;5.502;2023-07-22T01:26:14;11.40;99.90
13982;DHT22;7065;50.880;5.502;2023-07-22T01:28:40;11.40;99.90
13982;DHT22;7065;50.880;5.502;2023-07-22T01:31:06;11.40;99.90
13982;DHT22;7065;50.880;5.502;2023-07-22T01:33:32;11.30;99.90
13982;DHT22;7065;50.880;5.502;2023-07-22T01:35:58;11.30;99.90
13982;DHT22;7065;50.880;5.502;2023-07-22T01:38:24;11.30;99.90
13982;DHT22;7065;50.880;5.502;2023-07-22T01:40:49;11.30;99.90
13982;DHT22;7065;50.880;5.502;2023-07-22T01:43:15;11.30;99.90
13982;DHT22;7065;50.880;5.502;2023-07-22T01:45:41;11.30;99.90
13982;DHT22;7065;50.880;5.502;2023-07-22T01:48:08;11.30;99.90
13982;DHT22;7065;50.880;5.502;2023-07-22T01:50:33;11.30;99.90
13982;DHT22;7065;50.880;5.502;2023-07-22T01:52:59;11.30;99.90
13982;DHT22;7065;50.880;5.502;2023-07-22T01:55:25;11.30;99.90
13982;DHT22;7065;50.880;5.502;2023-07-22T01:57:51;11.30;99.90
13982;DHT22;7065;50.880;5.502;2023-07-22T02:00:17;11.30;99.90
13982;DHT22;7065;50.880;5.502;2023-07-22T02:02:42;11.30;99.90
13982;DHT22;7065;50.880;5.502;2023-07-22T02:05:09;11.40;99.90
13982;DHT22;7065;50.880;5.502;2023-07-22T02:07:38;11.40;99.90
13982;DHT22;7065;50.880;5.502;2023-07-22T02:10:04;11.50;99.90
13982;DHT22;7065;50.880;5.502;2023-07-22T02:12:30;11.50;99.90
13982;DHT22;7065;50.880;5.502;2023-07-22T02:14:55;11.50;99.90
13982;DHT22;7065;50.880;5.502;2023-07-22T02:17:21;11.50;99.90
13982;DHT22;7065;50.880;5.502;2023-07-22T02:19:47;11.50;99.90
13982;DHT22;7065;50.880;5.502;2023-07-22T02:22:13;11.50;99.90
13982;DHT22;7065;50.880;5.502;2023-07-22T02:24:38;11.50;99.90
13982;DHT22;7065;50.880;5.502;2023-07-22T02:27:04;11.60;99.90
13982;DHT22;7065;50.880;5.502;2023-07-22T02:29:31;11.60;99.90
13982;DHT22;7065;50.880;5.502;2023-07-22T02:31:56;11.70;99.90
13982;DHT22;7065;50.880;5.502;2023-07-22T02:34:23;11.70;99.90
13982;DHT22;7065;50.880;5.502;2023-07-22T02:36:49;11.70;99.90
13982;DHT22;7065;50.880;5.502;2023-07-22T02:39:15;11.70;99.90
13982;DHT22;7065;50.880;5.502;2023-07-22T02:41:40;11.80;99.90
13982;DHT22;7065;50.880;5.502;2023-07-22T02:44:06;11.80;99.90
13982;DHT22;7065;50.880;5.502;2023-07-22T02:46:32;11.80;99.90
13982;DHT22;7065;50.880;5.502;2023-07-22T02:48:58;11.80;99.90
13982;DHT22;7065;50.880;5.502;2023-07-22T02:51:27;11.80;99.90
13982;DHT22;7065;50.880;5.502;2023-07-22T02:53:52;11.80;99.90
13982;DHT22;7065;50.880;5.502;2023-07-22T02:56:18;11.80;99.90
13982;DHT22;7065;50.880;5.502;2023-07-22T02:58:43;11.80;99.90
13982;DHT22;7065;50.880;5.502;2023-07-22T03:01:09;11.80;99.90
13982;DHT22;7065;50.880;5.502;2023-07-22T03:03:36;11.70;99.90
13982;DHT22;7065;50.880;5.502;2023-07-22T03:06:02;11.70;99.90
13982;DHT22;7065;50.880;5.502;2023-07-22T03:08:29;11.70;99.90
13982;DHT22;7065;50.880;5.502;2023-07-22T03:10:55;11.60;99.90
13982;DHT22;7065;50.880;5.502;2023-07-22T03:13:20;11.60;99.90
13982;DHT22;7065;50.880;5.502;2023-07-22T03:15:47;11.50;99.90
13982;DHT22;7065;50.880;5.502;2023-07-22T03:18:12;11.50;99.90
13982;DHT22;7065;50.880;5.502;2023-07-22T03:20:39;11.50;99.90
13982;DHT22;7065;50.880;5.502;2023-07-22T03:23:05;11.50;99.90
13982;DHT22;7065;50.880;5.502;2023-07-22T03:25:32;11.40;99.90
13982;DHT22;7065;50.880;5.502;2023-07-22T03:28:02;11.40;99.90
13982;DHT22;7065;50.880;5.502;2023-07-22T03:30:28;11.30;99.90
13982;DHT22;7065;50.880;5.502;2023-07-22T03:32:55;11.20;99.90
13982;DHT22;7065;50.880;5.502;2023-07-22T03:35:20;11.30;99.90
13982;DHT22;7065;50.880;5.502;2023-07-22T03:37:46;11.30;99.90
13982;DHT22;7065;50.880;5.502;2023-07-22T03:40:12;11.30;99.90
13982;DHT22;7065;50.880;5.502;2023-07-22T03:42:50;11.30;99.90
13982;DHT22;7065;50.880;5.502;2023-07-22T03:45:17;11.30;99.90
13982;DHT22;7065;50.880;5.502;2023-07-22T03:47:44;11.30;99.90
13982;DHT22;7065;50.880;5.502;2023-07-22T03:50:11;11.30;99.90
13982;DHT22;7065;50.880;5.502;2023-07-22T03:52:37;11.30;99.90
13982;DHT22;7065;50.880;5.502;2023-07-22T03:55:03;11.30;99.90
13982;DHT22;7065;50.880;5.502;2023-07-22T03:57:30;11.40;99.90
13982;DHT22;7065;50.880;5.502;2023-07-22T03:59:56;11.40;99.90
13982;DHT22;7065;50.880;5.502;2023-07-22T04:02:22;11.50;99.90
13982;DHT22;7065;50.880;5.502;2023-07-22T04:04:48;11.50;99.90
13982;DHT22;7065;50.880;5.502;2023-07-22T04:07:14;11.60;99.90
13982;DHT22;7065;50.880;5.502;2023-07-22T04:09:40;11.60;99.90
13982;DHT22;7065;50.880;5.502;2023-07-22T04:12:07;11.60;99.90
13982;DHT22;7065;50.880;5.502;2023-07-22T04:14:33;11.60;99.90
13982;DHT22;7065;50.880;5.502;2023-07-22T04:16:58;11.60;99.90
13982;DHT22;7065;50.880;5.502;2023-07-22T04:19:24;11.60;99.90
13982;DHT22;7065;50.880;5.502;2023-07-22T04:21:50;11.60;99.90
13982;DHT22;7065;50.880;5.502;2023-07-22T04:24:15;11.60;99.90
13982;DHT22;7065;50.880;5.502;2023-07-22T04:26:43;11.60;99.90
13982;DHT22;7065;50.880;5.502;2023-07-22T04:29:08;11.60;99.90
13982;DHT22;7065;50.880;5.502;2023-07-22T04:31:35;11.50;99.90
13982;DHT22;7065;50.880;5.502;2023-07-22T04:34:00;11.50;99.90
13982;DHT22;7065;50.880;5.502;2023-07-22T04:36:27;11.50;99.90
13982;DHT22;7065;50.880;5.502;2023-07-22T04:38:53;11.50;99.90
13982;DHT22;7065;50.880;5.502;2023-07-22T04:41:18;11.50;99.90
13982;DHT22;7065;50.880;5.502;2023-07-22T04:43:44;11.50;99.90
13982;DHT22;7065;50.880;5.502;2023-07-22T04:46:10;11.50;99.90
13982;DHT22;7065;50.880;5.502;2023-07-22T04:48:36;11.60;99.90
13982;DHT22;7065;50.880;5.502;2023-07-22T04:51:02;11.60;99.90
13982;DHT22;7065;50.880;5.502;2023-07-22T04:53:28;11.70;99.90
13982;DHT22;7065;50.880;5.502;2023-07-22T04:55:54;11.70;99.90
13982;DHT22;7065;50.880;5.502;2023-07-22T04:58:20;11.80;99.90
13982;DHT22;7065;50.880;5.502;2023-07-22T05:00:46;11.90;99.90
13982;DHT22;7065;50.880;5.502;2023-07-22T05:03:12;11.90;99.90
13982;DHT22;7065;50.880;5.502;2023-07-22T05:05:39;11.90;99.90
13982;DHT22;7065;50.880;5.502;2023-07-22T05:08:04;11.90;99.90
13982;DHT22;7065;50.880;5.502;2023-07-22T05:10:30;11.90;99.90
13982;DHT22;7065;50.880;5.502;2023-07-22T05:12:56;12.00;99.90
13982;DHT22;7065;50.880;5.502;2023-07-22T05:15:25;12.00;99.90
13982;DHT22;7065;50.880;5.502;2023-07-22T05:17:51;12.00;99.90
13982;DHT22;7065;50.880;5.502;2023-07-22T05:20:17;12.10;99.90
13982;DHT22;7065;50.880;5.502;2023-07-22T05:22:43;12.10;99.90
13982;DHT22;7065;50.880;5.502;2023-07-22T05:25:09;12.20;99.90
13982;DHT22;7065;50.880;5.502;2023-07-22T05:27:35;12.30;99.90
13982;DHT22;7065;50.880;5.502;2023-07-22T05:30:01;12.30;99.90
13982;DHT22;7065;50.880;5.502;2023-07-22T05:32:30;12.40;99.90
13982;DHT22;7065;50.880;5.502;2023-07-22T05:34:55;12.50;99.90
13982;DHT22;7065;50.880;5.502;2023-07-22T05:37:22;12.60;99.90
13982;DHT22;7065;50.880;5.502;2023-07-22T05:39:48;12.70;99.90
13982;DHT22;7065;50.880;5.502;2023-07-22T05:42:14;12.90;99.90
13982;DHT22;7065;50.880;5.502;2023-07-22T05:44:39;13.00;99.90
13982;DHT22;7065;50.880;5.502;2023-07-22T05:47:05;13.10;99.90
13982;DHT22;7065;50.880;5.502;2023-07-22T05:49:31;13.10;99.90
13982;DHT22;7065;50.880;5.502;2023-07-22T05:51:56;13.20;99.90
13982;DHT22;7065;50.880;5.502;2023-07-22T05:54:22;13.30;99.90
13982;DHT22;7065;50.880;5.502;2023-07-22T05:56:49;13.20;99.90
13982;DHT22;7065;50.880;5.502;2023-07-22T05:59:14;13.30;99.90
13982;DHT22;7065;50.880;5.502;2023-07-22T06:01:40;13.30;99.90
13982;DHT22;7065;50.880;5.502;2023-07-22T06:04:06;13.30;99.90
13982;DHT22;7065;50.880;5.502;2023-07-22T06:06:32;13.30;99.90
13982;DHT22;7065;50.880;5.502;2023-07-22T06:08:57;13.40;99.90
13982;DHT22;7065;50.880;5.502;2023-07-22T06:11:23;13.40;99.90
13982;DHT22;7065;50.880;5.502;2023-07-22T06:13:49;13.50;99.90
13982;DHT22;7065;50.880;5.502;2023-07-22T06:16:14;13.50;99.90
13982;DHT22;7065;50.880;5.502;2023-07-22T06:18:40;13.50;99.90
13982;DHT22;7065;50.880;5.502;2023-07-22T06:21:06;13.60;99.90
13982;DHT22;7065;50.880;5.502;2023-07-22T06:23:32;13.70;99.90
13982;DHT22;7065;50.880;5.502;2023-07-22T06:25:57;13.70;99.90
13982;DHT22;7065;50.880;5.502;2023-07-22T06:28:23;13.80;99.90
13982;DHT22;7065;50.880;5.502;2023-07-22T06:30:49;13.90;99.90
13982;DHT22;7065;50.880;5.502;2023-07-22T06:33:14;14.00;99.90
13982;DHT22;7065;50.880;5.502;2023-07-22T06:35:41;14.10;99.90
13982;DHT22;7065;50.880;5.502;2023-07-22T06:38:07;14.20;99.90
13982;DHT22;7065;50.880;5.502;2023-07-22T06:40:33;14.30;99.90
13982;DHT22;7065;50.880;5.502;2023-07-22T06:42:59;14.40;99.90
13982;DHT22;7065;50.880;5.502;2023-07-22T06:45:25;14.40;99.90
13982;DHT22;7065;50.880;5.502;2023-07-22T06:47:50;14.50;99.90
13982;DHT22;7065;50.880;5.502;2023-07-22T06:50:16;14.60;99.90
13982;DHT22;7065;50.880;5.502;2023-07-22T06:52:42;14.70;99.90
13982;DHT22;7065;50.880;5.502;2023-07-22T06:55:07;14.80;99.90
13982;DHT22;7065;50.880;5.502;2023-07-22T06:57:33;14.80;99.90
13982;DHT22;7065;50.880;5.502;2023-07-22T06:59:59;14.90;99.90
13982;DHT22;7065;50.880;5.502;2023-07-22T07:02:26;15.00;99.90
13982;DHT22;7065;50.880;5.502;2023-07-22T07:04:52;15.00;99.90
13982;DHT22;7065;50.880;5.502;2023-07-22T07:07:17;15.10;99.90
13982;DHT22;7065;50.880;5.502;2023-07-22T07:09:43;15.20;99.90
13982;DHT22;7065;50.880;5.502;2023-07-22T07:12:09;15.20;99.90
13982;DHT22;7065;50.880;5.502;2023-07-22T07:14:35;15.30;99.90
13982;DHT22;7065;50.880;5.502;2023-07-22T07:17:02;15.30;99.90
13982;DHT22;7065;50.880;5.502;2023-07-22T07:19:28;15.30;99.90
13982;DHT22;7065;50.880;5.502;2023-07-22T07:21:54;15.40;99.90
13982;DHT22;7065;50.880;5.502;2023-07-22T07:24:20;15.50;99.90
13982;DHT22;7065;50.880;5.502;2023-07-22T07:26:46;15.50;99.90
13982;DHT22;7065;50.880;5.502;2023-07-22T07:29:11;15.50;99.90
13982;DHT22;7065;50.880;5.502;2023-07-22T07:31:38;15.60;99.90
13982;DHT22;7065;50.880;5.502;2023-07-22T07:34:04;15.60;99.90
13982;DHT22;7065;50.880;5.502;2023-07-22T07:36:29;15.60;99.90
13982;DHT22;7065;50.880;5.502;2023-07-22T07:38:55;15.70;99.90
13982;DHT22;7065;50.880;5.502;2023-07-22T07:41:21;15.80;99.90
13982;DHT22;7065;50.880;5.502;2023-07-22T07:43:47;15.90;99.90
13982;DHT22;7065;50.880;5.502;2023-07-22T07:46:22;15.90;99.90
13982;DHT22;7065;50.880;5.502;2023-07-22T07:48:53;16.10;99.90
13982;DHT22;7065;50.880;5.502;2023-07-22T07:51:20;16.20;99.90
13982;DHT22;7065;50.880;5.502;2023-07-22T07:53:47;16.30;99.90
13982;DHT22;7065;50.880;5.502;2023-07-22T07:56:14;16.30;99.90
13982;DHT22;7065;50.880;5.502;2023-07-22T07:58:40;16.30;99.90
13982;DHT22;7065;50.880;5.502;2023-07-22T08:01:06;16.40;99.90
13982;DHT22;7065;50.880;5.502;2023-07-22T08:03:33;16.50;99.90
13982;DHT22;7065;50.880;5.502;2023-07-22T08:05:59;16.50;99.90
13982;DHT22;7065;50.880;5.502;2023-07-22T08:08:24;16.50;99.90
13982;DHT22;7065;50.880;5.502;2023-07-22T08:11:11;16.50;99.90
13982;DHT22;7065;50.880;5.502;2023-07-22T08:13:39;16.60;99.90
13982;DHT22;7065;50.880;5.502;2023-07-22T08:16:07;16.70;99.90
13982;DHT22;7065;50.880;5.502;2023-07-22T08:18:34;16.80;99.90
13982;DHT22;7065;50.880;5.502;2023-07-22T08:21:01;16.90;99.90
13982;DHT22;7065;50.880;5.502;2023-07-22T08:23:28;16.90;99.90
13982;DHT22;7065;50.880;5.502;2023-07-22T08:25:54;17.00;99.90
13982;DHT22;7065;50.880;5.502;2023-07-22T08:28:19;17.00;99.90
13982;DHT22;7065;50.880;5.502;2023-07-22T08:30:45;17.00;99.90
13982;DHT22;7065;50.880;5.502;2023-07-22T08:33:14;17.10;99.90
13982;DHT22;7065;50.880;5.502;2023-07-22T08:35:40;17.10;99.90
13982;DHT22;7065;50.880;5.502;2023-07-22T08:38:07;17.10;99.90
13982;DHT22;7065;50.880;5.502;2023-07-22T08:40:37;17.20;99.90
13982;DHT22;7065;50.880;5.502;2023-07-22T08:43:05;17.30;99.90
13982;DHT22;7065;50.880;5.502;2023-07-22T08:45:33;17.40;99.90
13982;DHT22;7065;50.880;5.502;2023-07-22T08:48:03;17.50;99.90
13982;DHT22;7065;50.880;5.502;2023-07-22T08:50:53;17.70;99.90
13982;DHT22;7065;50.880;5.502;2023-07-22T08:53:20;17.80;99.90
13982;DHT22;7065;50.880;5.502;2023-07-22T08:55:46;18.00;99.90
13982;DHT22;7065;50.880;5.502;2023-07-22T08:58:13;17.90;99.90
13982;DHT22;7065;50.880;5.502;2023-07-22T09:00:40;17.90;99.90
13982;DHT22;7065;50.880;5.502;2023-07-22T09:03:06;17.90;99.90
13982;DHT22;7065;50.880;5.502;2023-07-22T09:05:33;18.00;99.90
13982;DHT22;7065;50.880;5.502;2023-07-22T09:08:01;18.10;99.90
13982;DHT22;7065;50.880;5.502;2023-07-22T09:10:28;18.10;99.90
13982;DHT22;7065;50.880;5.502;2023-07-22T09:12:54;18.30;99.90
13982;DHT22;7065;50.880;5.502;2023-07-22T09:15:20;18.30;99.90
13982;DHT22;7065;50.880;5.502;2023-07-22T09:17:47;18.40;99.90
13982;DHT22;7065;50.880;5.502;2023-07-22T09:20:13;18.30;99.90
13982;DHT22;7065;50.880;5.502;2023-07-22T09:22:46;18.30;99.90
13982;DHT22;7065;50.880;5.502;2023-07-22T09:25:28;18.40;99.90
13982;DHT22;7065;50.880;5.502;2023-07-22T09:27:55;18.60;99.90
13982;DHT22;7065;50.880;5.502;2023-07-22T09:30:24;18.70;99.90
13982;DHT22;7065;50.880;5.502;2023-07-22T09:32:51;18.70;99.90
13982;DHT22;7065;50.880;5.502;2023-07-22T09:35:18;18.70;99.90
13982;DHT22;7065;50.880;5.502;2023-07-22T09:37:44;18.70;99.90
13982;DHT22;7065;50.880;5.502;2023-07-22T09:40:20;18.70;99.90
13982;DHT22;7065;50.880;5.502;2023-07-22T09:42:52;18.80;99.90
13982;DHT22;7065;50.880;5.502;2023-07-22T09:45:20;18.80;99.90
13982;DHT22;7065;50.880;5.502;2023-07-22T09:47:47;18.80;99.90
13982;DHT22;7065;50.880;5.502;2023-07-22T09:50:24;18.80;99.90
13982;DHT22;7065;50.880;5.502;2023-07-22T09:52:52;19.00;99.90
13982;DHT22;7065;50.880;5.502;2023-07-22T09:55:20;19.10;99.90
13982;DHT22;7065;50.880;5.502;2023-07-22T09:57:49;19.00;99.90
13982;DHT22;7065;50.880;5.502;2023-07-22T10:00:16;19.00;99.90
13982;DHT22;7065;50.880;5.502;2023-07-22T10:02:46;19.10;99.90
13982;DHT22;7065;50.880;5.502;2023-07-22T10:05:15;19.20;99.90
13982;DHT22;7065;50.880;5.502;2023-07-22T10:07:47;19.30;99.90
13982;DHT22;7065;50.880;5.502;2023-07-22T10:10:16;19.50;99.90
13982;DHT22;7065;50.880;5.502;2023-07-22T10:12:42;19.40;99.90
13982;DHT22;7065;50.880;5.502;2023-07-22T10:15:10;19.40;99.90
13982;DHT22;7065;50.880;5.502;2023-07-22T10:17:36;19.40;99.90
13982;DHT22;7065;50.880;5.502;2023-07-22T10:20:02;19.40;99.90
13982;DHT22;7065;50.880;5.502;2023-07-22T10:22:37;19.40;99.90
13982;DHT22;7065;50.880;5.502;2023-07-22T10:25:04;19.50;99.90
13982;DHT22;7065;50.880;5.502;2023-07-22T10:27:31;19.60;99.90
13982;DHT22;7065;50.880;5.502;2023-07-22T10:29:58;19.70;99.90
13982;DHT22;7065;50.880;5.502;2023-07-22T10:32:24;19.70;99.90
13982;DHT22;7065;50.880;5.502;2023-07-22T10:34:50;19.80;99.90
13982;DHT22;7065;50.880;5.502;2023-07-22T10:37:18;19.80;99.90
13982;DHT22;7065;50.880;5.502;2023-07-22T10:39:44;19.80;99.90
13982;DHT22;7065;50.880;5.502;2023-07-22T10:42:24;19.80;99.90
13982;DHT22;7065;50.880;5.502;2023-07-22T10:44:50;19.80;99.90
13982;DHT22;7065;50.880;5.502;2023-07-22T10:47:31;19.80;99.90
13982;DHT22;7065;50.880;5.502;2023-07-22T10:50:06;19.80;99.90
13982;DHT22;7065;50.880;5.502;2023-07-22T10:52:44;20.00;99.90
13982;DHT22;7065;50.880;5.502;2023-07-22T10:55:17;20.10;99.90
13982;DHT22;7065;50.880;5.502;2023-07-22T10:57:50;20.10;99.90
13982;DHT22;7065;50.880;5.502;2023-07-22T11:00:20;20.10;99.90
13982;DHT22;7065;50.880;5.502;2023-07-22T11:03:08;20.10;99.90
13982;DHT22;7065;50.880;5.502;2023-07-22T11:05:49;20.30;99.90
13982;DHT22;7065;50.880;5.502;2023-07-22T11:08:16;20.40;99.90
13982;DHT22;7065;50.880;5.502;2023-07-22T11:10:54;20.50;99.90
13982;DHT22;7065;50.880;5.502;2023-07-22T11:13:29;20.70;99.90
13982;DHT22;7065;50.880;5.502;2023-07-22T11:15:59;20.70;99.90
13982;DHT22;7065;50.880;5.502;2023-07-22T11:18:40;20.70;99.90
13982;DHT22;7065;50.880;5.502;2023-07-22T11:21:10;20.70;99.90
13982;DHT22;7065;50.880;5.502;2023-07-22T11:23:36;20.70;99.90
13982;DHT22;7065;50.880;5.502;2023-07-22T11:26:03;20.80;99.90
13982;DHT22;7065;50.880;5.502;2023-07-22T11:28:30;20.90;99.90
13982;DHT22;7065;50.880;5.502;2023-07-22T11:30:55;20.70;99.90
13982;DHT22;7065;50.880;5.502;2023-07-22T11:33:22;20.60;99.90
13982;DHT22;7065;50.880;5.502;2023-07-22T11:35:47;20.40;99.90
13982;DHT22;7065;50.880;5.502;2023-07-22T11:38:13;20.40;99.90
13982;DHT22;7065;50.880;5.502;2023-07-22T11:40:39;20.60;99.90
13982;DHT22;7065;50.880;5.502;2023-07-22T11:43:04;20.60;99.90
13982;DHT22;7065;50.880;5.502;2023-07-22T11:45:31;20.80;99.90
13982;DHT22;7065;50.880;5.502;2023-07-22T11:47:57;21.00;99.90
13982;DHT22;7065;50.880;5.502;2023-07-22T11:50:33;21.00;99.90
13982;DHT22;7065;50.880;5.502;2023-07-22T11:52:59;21.10;99.90
13982;DHT22;7065;50.880;5.502;2023-07-22T11:55:25;21.20;99.90
13982;DHT22;7065;50.880;5.502;2023-07-22T11:57:54;21.20;99.90
13982;DHT22;7065;50.880;5.502;2023-07-22T12:00:20;21.30;99.90
13982;DHT22;7065;50.880;5.502;2023-07-22T12:02:46;21.40;99.90
13982;DHT22;7065;50.880;5.502;2023-07-22T12:05:20;21.50;99.90
13982;DHT22;7065;50.880;5.502;2023-07-22T12:07:46;21.70;99.90
13982;DHT22;7065;50.880;5.502;2023-07-22T12:10:12;21.60;99.90
13982;DHT22;7065;50.880;5.502;2023-07-22T12:12:43;21.60;99.90
13982;DHT22;7065;50.880;5.502;2023-07-22T12:15:13;21.60;99.90
13982;DHT22;7065;50.880;5.502;2023-07-22T12:17:48;21.40;99.90
13982;DHT22;7065;50.880;5.502;2023-07-22T12:20:14;21.70;99.90
13982;DHT22;7065;50.880;5.502;2023-07-22T12:22:41;21.90;99.90
13982;DHT22;7065;50.880;5.502;2023-07-22T12:25:07;21.90;99.90
13982;DHT22;7065;50.880;5.502;2023-07-22T12:27:33;21.90;99.90
13982;DHT22;7065;50.880;5.502;2023-07-22T12:29:58;21.80;99.90
13982;DHT22;7065;50.880;5.502;2023-07-22T12:32:24;21.90;99.90
13982;DHT22;7065;50.880;5.502;2023-07-22T12:34:50;22.00;99.90
13982;DHT22;7065;50.880;5.502;2023-07-22T12:37:16;21.80;99.90
13982;DHT22;7065;50.880;5.502;2023-07-22T12:39:41;21.70;99.90
13982;DHT22;7065;50.880;5.502;2023-07-22T12:42:07;21.60;99.90
13982;DHT22;7065;50.880;5.502;2023-07-22T12:44:33;21.50;99.90
13982;DHT22;7065;50.880;5.502;2023-07-22T12:46:59;21.40;99.90
13982;DHT22;7065;50.880;5.502;2023-07-22T12:49:25;21.60;99.90
13982;DHT22;7065;50.880;5.502;2023-07-22T12:51:51;21.70;99.90
13982;DHT22;7065;50.880;5.502;2023-07-22T12:54:17;21.80;99.90
13982;DHT22;7065;50.880;5.502;2023-07-22T12:56:42;21.70;99.90
13982;DHT22;7065;50.880;5.502;2023-07-22T12:59:09;21.60;99.90
13982;DHT22;7065;50.880;5.502;2023-07-22T13:01:35;21.80;99.90
13982;DHT22;7065;50.880;5.502;2023-07-22T13:04:04;22.00;99.90
13982;DHT22;7065;50.880;5.502;2023-07-22T13:06:30;22.20;99.90
13982;DHT22;7065;50.880;5.502;2023-07-22T13:08:55;22.20;99.90
13982;DHT22;7065;50.880;5.502;2023-07-22T13:11:21;22.10;99.90
13982;DHT22;7065;50.880;5.502;2023-07-22T13:13:47;21.80;99.90
13982;DHT22;7065;50.880;5.502;2023-07-22T13:16:13;21.80;99.90
13982;DHT22;7065;50.880;5.502;2023-07-22T13:18:39;22.10;99.90
13982;DHT22;7065;50.880;5.502;2023-07-22T13:21:04;22.10;99.90
13982;DHT22;7065;50.880;5.502;2023-07-22T13:23:30;21.90;99.90
13982;DHT22;7065;50.880;5.502;2023-07-22T13:25:56;21.80;99.90
13982;DHT22;7065;50.880;5.502;2023-07-22T13:28:21;21.80;99.90
13982;DHT22;7065;50.880;5.502;2023-07-22T13:30:47;22.10;99.90
13982;DHT22;7065;50.880;5.502;2023-07-22T13:33:13;22.50;99.90
13982;DHT22;7065;50.880;5.502;2023-07-22T13:35:38;22.70;99.90
13982;DHT22;7065;50.880;5.502;2023-07-22T13:38:04;22.70;99.90
13982;DHT22;7065;50.880;5.502;2023-07-22T13:40:30;22.90;99.90
13982;DHT22;7065;50.880;5.502;2023-07-22T13:42:56;23.20;99.90
13982;DHT22;7065;50.880;5.502;2023-07-22T13:45:21;23.20;99.90
13982;DHT22;7065;50.880;5.502;2023-07-22T13:47:47;23.30;99.90
13982;DHT22;7065;50.880;5.502;2023-07-22T13:50:13;23.10;99.90
13982;DHT22;7065;50.880;5.502;2023-07-22T13:52:38;22.50;99.90
13982;DHT22;7065;50.880;5.502;2023-07-22T13:55:06;22.50;99.90
13982;DHT22;7065;50.880;5.502;2023-07-22T13:57:33;22.60;99.90
13982;DHT22;7065;50.880;5.502;2023-07-22T13:59:58;22.60;99.90
13982;DHT22;7065;50.880;5.502;2023-07-22T14:02:24;22.90;99.90
13982;DHT22;7065;50.880;5.502;2023-07-22T14:04:50;23.20;99.90
13982;DHT22;7065;50.880;5.502;2023-07-22T14:07:16;23.20;99.90
13982;DHT22;7065;50.880;5.502;2023-07-22T14:09:43;23.10;99.90
13982;DHT22;7065;50.880;5.502;2023-07-22T14:12:09;23.20;99.90
13982;DHT22;7065;50.880;5.502;2023-07-22T14:14:34;23.40;99.90
13982;DHT22;7065;50.880;5.502;2023-07-22T14:17:00;23.50;99.90
13982;DHT22;7065;50.880;5.502;2023-07-22T14:19:26;23.50;99.90
13982;DHT22;7065;50.880;5.502;2023-07-22T14:21:52;23.40;99.90
13982;DHT22;7065;50.880;5.502;2023-07-22T14:24:17;23.50;99.90
13982;DHT22;7065;50.880;5.502;2023-07-22T14:26:43;23.30;99.90
13982;DHT22;7065;50.880;5.502;2023-07-22T14:29:09;23.30;99.90
13982;DHT22;7065;50.880;5.502;2023-07-22T14:31:34;23.50;99.90
13982;DHT22;7065;50.880;5.502;2023-07-22T14:34:00;23.50;99.90
13982;DHT22;7065;50.880;5.502;2023-07-22T14:36:26;23.40;99.90
13982;DHT22;7065;50.880;5.502;2023-07-22T14:38:52;23.20;99.90
13982;DHT22;7065;50.880;5.502;2023-07-22T14:41:19;23.30;99.90
13982;DHT22;7065;50.880;5.502;2023-07-22T14:43:45;23.50;99.90
13982;DHT22;7065;50.880;5.502;2023-07-22T14:46:10;23.60;99.90
13982;DHT22;7065;50.880;5.502;2023-07-22T14:48:36;23.70;99.90
13982;DHT22;7065;50.880;5.502;2023-07-22T14:51:02;23.90;99.90
13982;DHT22;7065;50.880;5.502;2023-07-22T14:53:27;24.00;99.90
13982;DHT22;7065;50.880;5.502;2023-07-22T14:55:53;24.00;99.90
13982;DHT22;7065;50.880;5.502;2023-07-22T14:58:18;24.10;99.90
13982;DHT22;7065;50.880;5.502;2023-07-22T15:00:44;24.20;99.90
13982;DHT22;7065;50.880;5.502;2023-07-22T15:03:10;24.40;99.90
13982;DHT22;7065;50.880;5.502;2023-07-22T15:05:36;24.20;99.90
13982;DHT22;7065;50.880;5.502;2023-07-22T15:08:01;23.90;99.90
13982;DHT22;7065;50.880;5.502;2023-07-22T15:10:28;23.60;99.90
13982;DHT22;7065;50.880;5.502;2023-07-22T15:12:53;23.40;99.90
13982;DHT22;7065;50.880;5.502;2023-07-22T15:15:20;23.40;99.90
13982;DHT22;7065;50.880;5.502;2023-07-22T15:17:46;23.50;99.90
13982;DHT22;7065;50.880;5.502;2023-07-22T15:20:12;23.60;99.90
13982;DHT22;7065;50.880;5.502;2023-07-22T15:22:39;23.80;99.90
13982;DHT22;7065;50.880;5.502;2023-07-22T15:25:05;23.90;99.90
13982;DHT22;7065;50.880;5.502;2023-07-22T15:27:31;23.70;99.90
13982;DHT22;7065;50.880;5.502;2023-07-22T15:29:57;23.30;99.90
13982;DHT22;7065;50.880;5.502;2023-07-22T15:32:22;23.20;99.90
13982;DHT22;7065;50.880;5.502;2023-07-22T15:34:48;23.30;99.90
13982;DHT22;7065;50.880;5.502;2023-07-22T15:37:13;23.30;99.90
13982;DHT22;7065;50.880;5.502;2023-07-22T15:39:39;23.30;99.90
13982;DHT22;7065;50.880;5.502;2023-07-22T15:42:05;23.30;99.90